Pagrindinis puslapis
METAR-TAF:

METAR-TAF

Oro uostai :

Savonlinna, Suomija

platuma: 61-57N, ilguma: 028-57E, Aukštis: 95 m

Dabartinis oras

Ataskaita buvo paskelbta 38 minutes, ne 09:20 UTC
Vėjas 5 kt iš Rytų/Šiaurės Rytų, svyruoja nuo Šiaurės ir Pietryčių
Temperatūra 25°C
Drėgmė 32%
Slėgis 1022 hPa
Matomumas 10 km arba daugiau
nėra debesų žemiau 1500 m ir nėra kamuolinių lietaus debesų

METAR: EFSA 300920Z AUTO 06005KT 350V130 CAVOK 25/07 Q1022

Laikas: 12:58 (09:58 UTC)

Prognozė

Ataskaita buvo paskelbta 1 valandą ir 36 minutes, ne 08:22 UTC
Prognozė galioja nuo 30 metu 09 UTC su 30 metu 18 UTC
Vėjas 3 kt iš Šiaurės Rytų
Matomumas 10 km arba daugiau
nėra debesų žemiau 1500 m ir nėra kamuolinių lietaus debesų

TAF: EFSA 300822Z 3009/3018 04003KT CAVOK

Orai ataskaitas ir orų prognozės (METAR, TAF).

turimą stotys yra geltonos ir raudonos taškus žemėlapyje.

Perkelti pele per norėdami pamatyti stoties vardą.

Tada spustelėkite, norėdami matyti oro stebėjimo ir prognozės.

Norėdami pakeisti žemėlapį: spustelėkite ant žalios mygtukų su juodo kryžiaus žemyn,; žalią mygtuką su brūkšneliu, jei norite nutolinti; arba žalių rodyklių gretimoms žemėlapius.


METAR-TAF: